Wetterdaten: Woche 29.07.13 - 04.08.13 (KW31)
Datum Zeit Temp. A. Feuchte A. Luftdruck Regen Wind Richtung Taupunkt Windchill Windben
29.07.2013 00:00 18,7 C 95 % 1012,8 hPa 0,0 l/m 0,0 km/h (0 Bft) N 17,9 C 18,7 C 0,0 km/h (0 Bft)
29.07.2013 01:00 18,7 C 95 % 1013,3 hPa 0,0 l/m 0,0 km/h (0 Bft) N 17,9 C 18,7 C 0,0 km/h (0 Bft)
29.07.2013 02:00 18,3 C 96 % 1013,7 hPa 0,0 l/m 0,0 km/h (0 Bft) N 17,6 C 18,3 C 0,0 km/h (0 Bft)
29.07.2013 03:00 18,1 C 96 % 1013,4 hPa 0,0 l/m 0,0 km/h (0 Bft) N 17,5 C 18,1 C 0,0 km/h (0 Bft)
29.07.2013 04:00 17,9 C 96 % 1012,8 hPa 0,0 l/m 0,0 km/h (0 Bft) N 17,3 C 17,9 C 0,0 km/h (0 Bft)
29.07.2013 05:00 17,6 C 96 % 1012,6 hPa 0,2 l/m 0,0 km/h (0 Bft) N 16,9 C 17,6 C 0,0 km/h (0 Bft)
29.07.2013 06:00 17,4 C 96 % 1012,8 hPa 0,0 l/m 0,0 km/h (0 Bft) N 16,8 C 17,4 C 0,0 km/h (0 Bft)
29.07.2013 07:00 18,2 C 97 % 1013,1 hPa 0,0 l/m 0,0 km/h (0 Bft) N 17,7 C 18,2 C 0,0 km/h (0 Bft)
29.07.2013 08:00 19,0 C 97 % 1013,1 hPa 0,0 l/m 0,0 km/h (0 Bft) N 18,4 C 19,0 C 0,0 km/h (0 Bft)
29.07.2013 09:00 19,6 C 95 % 1013,1 hPa 0,0 l/m 0,0 km/h (0 Bft) N 18,8 C 19,6 C 0,0 km/h (0 Bft)
29.07.2013 10:00 20,3 C 92 % 1013,3 hPa 0,0 l/m 0,0 km/h (0 Bft) N 18,8 C 20,3 C 0,0 km/h (0 Bft)
29.07.2013 11:00 21,2 C 88 % 1013,4 hPa 0,0 l/m 0,6 km/h (0 Bft) SW 19,0 C 21,2 C 2,3 km/h (1 Bft)
29.07.2013 12:00 22,6 C 83 % 1013,0 hPa 0,0 l/m 1,5 km/h (1 Bft) S-SW 19,5 C 22,6 C 4,4 km/h (1 Bft)
29.07.2013 13:00 24,6 C 72 % 1012,9 hPa 0,0 l/m 2,7 km/h (1 Bft) W-SW 19,1 C 24,6 C 6,2 km/h (2 Bft)
29.07.2013 14:00 26,0 C 63 % 1012,2 hPa 0,0 l/m 3,1 km/h (1 Bft) SW 18,3 C 26,0 C 7,4 km/h (2 Bft)
29.07.2013 15:00 26,3 C 60 % 1011,2 hPa 0,0 l/m 2,8 km/h (1 Bft) W-NW 17,8 C 26,3 C 6,8 km/h (2 Bft)
29.07.2013 16:00 27,0 C 54 % 1011,2 hPa 0,0 l/m 2,2 km/h (1 Bft) W-SW 17,0 C 27,0 C 6,1 km/h (2 Bft)
29.07.2013 17:00 25,8 C 61 % 1011,3 hPa 0,0 l/m 3,2 km/h (1 Bft) N-NW 17,6 C 25,8 C 6,5 km/h (2 Bft)
29.07.2013 18:00 24,1 C 71 % 1011,4 hPa 0,0 l/m 2,3 km/h (1 Bft) O-NO 18,6 C 24,1 C 5,2 km/h (1 Bft)
29.07.2013 19:00 22,3 C 77 % 1011,9 hPa 0,0 l/m 4,2 km/h (1 Bft) NO 18,0 C 22,3 C 9,1 km/h (2 Bft)
29.07.2013 20:00 20,1 C 83 % 1012,4 hPa 10,0 l/m 3,2 km/h (1 Bft) O-NO 17,2 C 20,1 C 8,4 km/h (2 Bft)
29.07.2013 21:00 17,8 C 91 % 1013,2 hPa 0,0 l/m 4,9 km/h (1 Bft) N-NO 16,3 C 17,6 C 10,3 km/h (2 Bft)
29.07.2013 22:00 17,2 C 93 % 1013,5 hPa 0,0 l/m 0,0 km/h (0 Bft) N 16,0 C 17,2 C 0,0 km/h (0 Bft)
29.07.2013 23:00 16,9 C 94 % 1014,1 hPa 0,0 l/m 0,6 km/h (0 Bft) N-NW 16,0 C 16,9 C 1,5 km/h (1 Bft)
30.07.2013 00:00 16,7 C 94 % 1014,6 hPa 0,0 l/m 0,2 km/h (0 Bft) N 15,8 C 16,7 C 1,3 km/h (1 Bft)
30.07.2013 01:00 16,8 C 94 % 1014,5 hPa 0,2 l/m 0,7 km/h (0 Bft) W 15,8 C 16,8 C 2,8 km/h (1 Bft)
30.07.2013 02:00 17,0 C 94 % 1014,5 hPa 0,0 l/m 0,9 km/h (0 Bft) W-SW 16,1 C 17,0 C 4,3 km/h (1 Bft)
30.07.2013 03:00 16,7 C 94 % 1014,2 hPa 0,0 l/m 0,3 km/h (0 Bft) S-SW 15,8 C 16,7 C 1,5 km/h (1 Bft)
30.07.2013 04:00 16,1 C 95 % 1014,3 hPa 0,0 l/m 1,6 km/h (1 Bft) W-SW 15,3 C 16,1 C 5,1 km/h (1 Bft)
30.07.2013 05:00 15,7 C 95 % 1014,5 hPa 0,2 l/m 0,4 km/h (0 Bft) N 14,9 C 15,7 C 2,9 km/h (1 Bft)
30.07.2013 06:00 15,9 C 96 % 1014,8 hPa 0,0 l/m 0,3 km/h (0 Bft) S-SW 15,2 C 15,9 C 1,6 km/h (1 Bft)
30.07.2013 07:00 16,9 C 93 % 1014,9 hPa 0,0 l/m 2,3 km/h (1 Bft) SW 15,7 C 16,9 C 6,4 km/h (2 Bft)
30.07.2013 08:00 18,6 C 88 % 1015,2 hPa 0,0 l/m 3,1 km/h (1 Bft) SW 16,5 C 18,6 C 9,7 km/h (2 Bft)
30.07.2013 09:00 18,7 C 87 % 1015,6 hPa 0,0 l/m 4,9 km/h (1 Bft) W-NW 16,4 C 18,6 C 12,4 km/h (2 Bft)
30.07.2013 10:00 18,7 C 86 % 1015,9 hPa 0,0 l/m 4,8 km/h (1 Bft) W-SW 16,4 C 18,6 C 13,4 km/h (3 Bft)
30.07.2013 11:00 20,5 C 77 % 1015,9 hPa 0,0 l/m 5,9 km/h (2 Bft) W 16,4 C 20,3 C 13,8 km/h (3 Bft)
30.07.2013 12:00 22,1 C 63 % 1015,6 hPa 0,0 l/m 8,5 km/h (2 Bft) SW 14,6 C 21,4 C 19,4 km/h (3 Bft)
30.07.2013 13:00 23,0 C 57 % 1015,5 hPa 0,0 l/m 9,0 km/h (2 Bft) SW 13,9 C 22,2 C 20,6 km/h (4 Bft)
30.07.2013 14:00 23,3 C 54 % 1015,4 hPa 0,0 l/m 7,8 km/h (2 Bft) SW 13,5 C 22,9 C 19,4 km/h (3 Bft)
30.07.2013 15:00 23,4 C 53 % 1015,1 hPa 0,0 l/m 7,4 km/h (2 Bft) W 13,4 C 23,0 C 17,3 km/h (3 Bft)
30.07.2013 16:00 23,2 C 54 % 1015,0 hPa 0,0 l/m 6,2 km/h (2 Bft) W-SW 13,5 C 23,1 C 14,8 km/h (3 Bft)
30.07.2013 17:00 24,0 C 49 % 1014,6 hPa 0,0 l/m 7,4 km/h (2 Bft) W 12,7 C 23,7 C 18,2 km/h (3 Bft)
30.07.2013 18:00 24,0 C 49 % 1014,5 hPa 0,0 l/m 6,3 km/h (2 Bft) W-NW 12,5 C 23,9 C 16,5 km/h (3 Bft)
30.07.2013 19:00 23,4 C 50 % 1014,3 hPa 0,0 l/m 5,2 km/h (1 Bft) W-NW 12,4 C 23,4 C 13,2 km/h (3 Bft)
30.07.2013 20:00 22,1 C 55 % 1014,3 hPa 0,0 l/m 1,5 km/h (1 Bft) SW 12,7 C 22,1 C 5,6 km/h (2 Bft)
30.07.2013 21:00 20,3 C 63 % 1014,4 hPa 0,0 l/m 0,7 km/h (0 Bft) S-SW 13,1 C 20,3 C 2,0 km/h (1 Bft)
30.07.2013 22:00 20,2 C 66 % 1014,4 hPa 0,0 l/m 2,9 km/h (1 Bft) SW 13,5 C 20,2 C 7,5 km/h (2 Bft)
30.07.2013 23:00 19,6 C 69 % 1014,0 hPa 0,0 l/m 4,5 km/h (1 Bft) S-SW 13,7 C 19,6 C 11,0 km/h (2 Bft)
31.07.2013 00:00 18,9 C 73 % 1013,7 hPa 0,0 l/m 4,5 km/h (1 Bft) SW 14,0 C 18,9 C 10,5 km/h (2 Bft)
31.07.2013 01:00 18,4 C 77 % 1012,9 hPa 0,0 l/m 4,9 km/h (1 Bft) S-SW 14,4 C 18,4 C 10,8 km/h (2 Bft)
31.07.2013 02:00 16,9 C 87 % 1012,5 hPa 0,8 l/m 3,8 km/h (1 Bft) S 14,8 C 16,9 C 9,7 km/h (2 Bft)
31.07.2013 03:00 16,3 C 92 % 1011,8 hPa 0,4 l/m 1,6 km/h (1 Bft) S-SO 15,0 C 16,3 C 4,5 km/h (1 Bft)
31.07.2013 04:00 16,5 C 92 % 1011,2 hPa 0,6 l/m 5,3 km/h (1 Bft) S-SW 15,2 C 16,4 C 12,2 km/h (2 Bft)
31.07.2013 05:00 16,6 C 93 % 1011,2 hPa 0,6 l/m 6,6 km/h (2 Bft) SW 15,5 C 16,3 C 16,0 km/h (3 Bft)
31.07.2013 06:00 17,1 C 92 % 1011,5 hPa 0,0 l/m 4,3 km/h (1 Bft) S-SW 15,9 C 17,1 C 12,0 km/h (2 Bft)
31.07.2013 07:00 17,5 C 91 % 1012,0 hPa 0,0 l/m 5,1 km/h (1 Bft) W 16,0 C 17,4 C 14,2 km/h (3 Bft)
31.07.2013 08:00 18,2 C 87 % 1012,8 hPa 0,0 l/m 5,8 km/h (2 Bft) S-SW 16,0 C 18,1 C 16,5 km/h (3 Bft)
31.07.2013 09:00 18,8 C 84 % 1013,4 hPa 0,0 l/m 6,1 km/h (2 Bft) W 16,1 C 18,7 C 15,2 km/h (3 Bft)
31.07.2013 10:00 20,6 C 74 % 1014,1 hPa 0,0 l/m 7,7 km/h (2 Bft) W-SW 15,7 C 20,1 C 19,7 km/h (3 Bft)
31.07.2013 11:00 21,6 C 66 % 1014,6 hPa 0,0 l/m 7,6 km/h (2 Bft) W 15,0 C 21,2 C 19,2 km/h (3 Bft)
31.07.2013 12:00 22,8 C 59 % 1015,1 hPa 0,0 l/m 7,5 km/h (2 Bft) W 14,4 C 22,4 C 17,6 km/h (3 Bft)
31.07.2013 13:00 22,9 C 58 % 1015,3 hPa 0,0 l/m 6,0 km/h (2 Bft) W-NW 14,3 C 22,8 C 14,6 km/h (3 Bft)
31.07.2013 14:00 23,0 C 60 % 1015,3 hPa 0,0 l/m 5,7 km/h (2 Bft) W 14,9 C 23,0 C 14,6 km/h (3 Bft)
31.07.2013 15:00 22,3 C 63 % 1015,7 hPa 0,0 l/m 9,5 km/h (2 Bft) N-NW 14,9 C 21,4 C 20,8 km/h (4 Bft)
31.07.2013 16:00 20,9 C 72 % 1016,0 hPa 1,0 l/m 3,7 km/h (1 Bft) N-NW 15,7 C 20,7 C 8,2 km/h (2 Bft)
31.07.2013 17:00 18,4 C 87 % 1016,5 hPa 2,4 l/m 1,6 km/h (1 Bft) SW 16,2 C 18,4 C 4,6 km/h (1 Bft)
31.07.2013 18:00 20,7 C 81 % 1016,4 hPa 0,0 l/m 1,9 km/h (1 Bft) SW 17,2 C 20,7 C 4,4 km/h (1 Bft)
31.07.2013 19:00 19,5 C 86 % 1016,6 hPa 0,0 l/m 1,1 km/h (0 Bft) NW 17,0 C 19,5 C 3,2 km/h (1 Bft)
31.07.2013 20:00 18,9 C 88 % 1016,8 hPa 0,0 l/m 0,1 km/h (0 Bft) NW 16,8 C 18,9 C 0,7 km/h (0 Bft)
31.07.2013 21:00 18,1 C 90 % 1017,4 hPa 0,0 l/m 0,4 km/h (0 Bft) N 16,4 C 18,1 C 1,5 km/h (1 Bft)
31.07.2013 22:00 17,7 C 92 % 1017,6 hPa 0,0 l/m 0,0 km/h (0 Bft) N 16,3 C 17,7 C 0,0 km/h (0 Bft)
31.07.2013 23:00 17,6 C 92 % 1017,6 hPa 0,0 l/m 0,6 km/h (0 Bft) W 16,2 C 17,6 C 2,4 km/h (1 Bft)
01.08.2013 00:00 18,1 C 84 % 1017,5 hPa 0,0 l/m 0,4 km/h (0 Bft) S-SW 15,3 C 18,1 C 1,9 km/h (1 Bft)
01.08.2013 01:00 17,5 C 86 % 1017,6 hPa 0,0 l/m 0,0 km/h (0 Bft) N 15,2 C 17,5 C 0,0 km/h (0 Bft)
01.08.2013 02:00 16,4 C 90 % 1017,5 hPa 0,0 l/m 0,0 km/h (0 Bft) N 14,8 C 16,4 C 0,0 km/h (0 Bft)
01.08.2013 03:00 16,3 C 92 % 1017,3 hPa 0,0 l/m 0,0 km/h (0 Bft) N 15,1 C 16,3 C 0,0 km/h (0 Bft)
01.08.2013 04:00 16,1 C 94 % 1017,1 hPa 0,0 l/m 0,0 km/h (0 Bft) N 15,0 C 16,1 C 0,0 km/h (0 Bft)
01.08.2013 05:00 16,1 C 94 % 1017,1 hPa 0,0 l/m 0,0 km/h (0 Bft) N 15,2 C 16,1 C 0,0 km/h (0 Bft)
01.08.2013 06:00 16,5 C 94 % 1017,1 hPa 0,0 l/m 0,0 km/h (0 Bft) O-SO 15,5 C 16,5 C 0,3 km/h (0 Bft)
01.08.2013 07:00 18,1 C 89 % 1017,2 hPa 0,0 l/m 1,3 km/h (1 Bft) S-SW 16,3 C 18,1 C 4,4 km/h (1 Bft)
01.08.2013 08:00 20,5 C 81 % 1017,4 hPa 0,0 l/m 2,8 km/h (1 Bft) S-SW 17,1 C 20,5 C 6,3 km/h (2 Bft)
01.08.2013 09:00 22,3 C 74 % 1017,4 hPa 0,0 l/m 3,0 km/h (1 Bft) S-SW 17,5 C 22,3 C 6,8 km/h (2 Bft)
01.08.2013 10:00 23,7 C 68 % 1017,4 hPa 0,0 l/m 3,4 km/h (1 Bft) S-SW 17,5 C 23,7 C 7,9 km/h (2 Bft)
01.08.2013 11:00 25,6 C 59 % 1017,0 hPa 0,0 l/m 4,0 km/h (1 Bft) SW 16,9 C 25,6 C 10,6 km/h (2 Bft)
01.08.2013 12:00 26,9 C 53 % 1016,7 hPa 0,0 l/m 4,6 km/h (1 Bft) O-SO 16,4 C 26,9 C 10,5 km/h (2 Bft)
01.08.2013 13:00 28,0 C 49 % 1016,4 hPa 0,0 l/m 5,2 km/h (1 Bft) S-SO 16,2 C 28,0 C 12,9 km/h (3 Bft)
01.08.2013 14:00 28,6 C 48 % 1015,7 hPa 0,0 l/m 6,0 km/h (2 Bft) S-SW 16,4 C 28,6 C 13,2 km/h (3 Bft)
01.08.2013 15:00 29,3 C 47 % 1015,3 hPa 0,0 l/m 5,4 km/h (1 Bft) S-SW 16,7 C 29,3 C 12,6 km/h (3 Bft)
01.08.2013 16:00 29,9 C 45 % 1015,0 hPa 0,0 l/m 5,0 km/h (1 Bft) SW 16,6 C 29,9 C 12,2 km/h (2 Bft)
01.08.2013 17:00 30,6 C 43 % 1014,6 hPa 0,0 l/m 4,1 km/h (1 Bft) SW 16,6 C 30,6 C 9,8 km/h (2 Bft)
01.08.2013 18:00 30,8 C 42 % 1014,3 hPa 0,0 l/m 3,1 km/h (1 Bft) SW 16,5 C 30,8 C 7,6 km/h (2 Bft)
01.08.2013 19:00 30,7 C 43 % 1014,1 hPa 0,0 l/m 1,5 km/h (1 Bft) SW 16,6 C 30,7 C 4,3 km/h (1 Bft)
01.08.2013 20:00 29,2 C 50 % 1014,1 hPa 0,0 l/m 0,0 km/h (0 Bft) N 17,6 C 29,2 C 0,0 km/h (0 Bft)
01.08.2013 21:00 23,4 C 74 % 1014,5 hPa 0,0 l/m 0,0 km/h (0 Bft) N 18,4 C 23,4 C 0,0 km/h (0 Bft)
01.08.2013 22:00 21,0 C 84 % 1014,5 hPa 0,0 l/m 0,0 km/h (0 Bft) N 18,2 C 21,0 C 0,0 km/h (0 Bft)
01.08.2013 23:00 19,4 C 87 % 1014,4 hPa 0,0 l/m 0,0 km/h (0 Bft) N 17,1 C 19,4 C 0,0 km/h (0 Bft)
02.08.2013 00:00 18,2 C 90 % 1014,3 hPa 0,0 l/m 0,0 km/h (0 Bft) N 16,5 C 18,2 C 0,0 km/h (0 Bft)
02.08.2013 01:00 16,7 C 92 % 1014,3 hPa 0,0 l/m 0,0 km/h (0 Bft) N 15,4 C 16,7 C 0,0 km/h (0 Bft)
02.08.2013 02:00 16,6 C 93 % 1014,2 hPa 0,0 l/m 0,0 km/h (0 Bft) N 15,5 C 16,6 C 0,0 km/h (0 Bft)
02.08.2013 03:00 15,7 C 92 % 1013,8 hPa 0,0 l/m 0,0 km/h (0 Bft) N 14,4 C 15,7 C 0,0 km/h (0 Bft)
02.08.2013 04:00 14,6 C 93 % 1013,6 hPa 0,0 l/m 0,0 km/h (0 Bft) N 13,5 C 14,6 C 0,0 km/h (0 Bft)
02.08.2013 05:00 14,2 C 94 % 1013,6 hPa 0,0 l/m 0,0 km/h (0 Bft) N 13,3 C 14,2 C 0,0 km/h (0 Bft)
02.08.2013 06:00 15,3 C 94 % 1013,7 hPa 0,0 l/m 0,0 km/h (0 Bft) N 14,3 C 15,3 C 0,0 km/h (0 Bft)
02.08.2013 07:00 19,5 C 87 % 1013,6 hPa 0,0 l/m 0,1 km/h (0 Bft) O 17,3 C 19,5 C 0,3 km/h (0 Bft)
02.08.2013 08:00 24,1 C 71 % 1013,6 hPa 0,0 l/m 1,1 km/h (0 Bft) O-SO 18,6 C 24,1 C 2,8 km/h (1 Bft)
02.08.2013 09:00 27,7 C 59 % 1013,5 hPa 0,0 l/m 1,9 km/h (1 Bft) O-SO 18,9 C 27,7 C 4,9 km/h (1 Bft)
02.08.2013 10:00 30,7 C 48 % 1013,4 hPa 0,0 l/m 3,3 km/h (1 Bft) S 18,3 C 30,7 C 7,0 km/h (2 Bft)
02.08.2013 11:00 32,3 C 41 % 1013,2 hPa 0,0 l/m 3,9 km/h (1 Bft) O-NO 17,3 C 32,3 C 8,7 km/h (2 Bft)
02.08.2013 12:00 33,3 C 37 % 1012,7 hPa 0,0 l/m 4,7 km/h (1 Bft) O-SO 16,5 C 33,3 C 11,2 km/h (2 Bft)
02.08.2013 13:00 34,1 C 33 % 1012,2 hPa 0,0 l/m 4,7 km/h (1 Bft) O-NO 15,4 C 34,1 C 10,9 km/h (2 Bft)
02.08.2013 14:00 34,9 C 30 % 1011,8 hPa 0,0 l/m 4,8 km/h (1 Bft) SW 14,6 C 34,9 C 11,8 km/h (2 Bft)
02.08.2013 15:00 35,6 C 29 % 1011,2 hPa 0,0 l/m 5,1 km/h (1 Bft) S-SW 14,7 C 35,6 C 12,2 km/h (2 Bft)
02.08.2013 16:00 36,0 C 29 % 1011,0 hPa 0,0 l/m 4,9 km/h (1 Bft) S 15,2 C 36,0 C 11,9 km/h (2 Bft)
02.08.2013 17:00 36,4 C 30 % 1010,8 hPa 0,0 l/m 3,7 km/h (1 Bft) S 15,7 C 36,4 C 9,8 km/h (2 Bft)
02.08.2013 18:00 35,9 C 31 % 1010,6 hPa 0,0 l/m 3,8 km/h (1 Bft) S-SO 15,8 C 35,9 C 8,6 km/h (2 Bft)
02.08.2013 19:00 35,4 C 32 % 1010,6 hPa 0,0 l/m 1,7 km/h (1 Bft) SW 15,9 C 35,4 C 4,1 km/h (1 Bft)
02.08.2013 20:00 32,6 C 42 % 1010,7 hPa 0,0 l/m 0,0 km/h (0 Bft) N 17,8 C 32,6 C 0,0 km/h (0 Bft)
02.08.2013 21:00 25,4 C 65 % 1011,0 hPa 0,0 l/m 0,0 km/h (0 Bft) N 18,4 C 25,4 C 0,0 km/h (0 Bft)
02.08.2013 22:00 22,5 C 79 % 1011,1 hPa 0,0 l/m 0,0 km/h (0 Bft) N 18,7 C 22,5 C 0,0 km/h (0 Bft)
02.08.2013 23:00 20,9 C 84 % 1010,9 hPa 0,0 l/m 0,0 km/h (0 Bft) N 18,1 C 20,9 C 0,0 km/h (0 Bft)
03.08.2013 00:00 19,9 C 83 % 1010,7 hPa 0,0 l/m 0,0 km/h (0 Bft) N 17,0 C 19,9 C 0,0 km/h (0 Bft)
03.08.2013 01:00 18,5 C 89 % 1010,8 hPa 0,0 l/m 0,0 km/h (0 Bft) N 16,7 C 18,5 C 0,0 km/h (0 Bft)
03.08.2013 02:00 18,0 C 90 % 1010,5 hPa 0,0 l/m 0,0 km/h (0 Bft) N 16,4 C 18,0 C 0,0 km/h (0 Bft)
03.08.2013 03:00 16,9 C 91 % 1010,1 hPa 0,0 l/m 0,0 km/h (0 Bft) N 15,5 C 16,9 C 0,0 km/h (0 Bft)
03.08.2013 04:00 16,2 C 93 % 1010,0 hPa 0,0 l/m 0,0 km/h (0 Bft) N 15,1 C 16,2 C 0,0 km/h (0 Bft)
03.08.2013 05:00 16,9 C 92 % 1010,3 hPa 0,0 l/m 0,0 km/h (0 Bft) N 15,5 C 16,9 C 0,3 km/h (0 Bft)
03.08.2013 06:00 18,0 C 89 % 1011,3 hPa 0,0 l/m 0,0 km/h (0 Bft) N 16,1 C 18,0 C 0,0 km/h (0 Bft)
03.08.2013 07:00 21,0 C 80 % 1012,5 hPa 0,0 l/m 0,7 km/h (0 Bft) SW 17,4 C 21,0 C 2,7 km/h (1 Bft)
03.08.2013 08:00 25,7 C 64 % 1013,1 hPa 0,0 l/m 3,5 km/h (1 Bft) W-SW 18,2 C 25,7 C 9,4 km/h (2 Bft)
03.08.2013 09:00 26,5 C 63 % 1014,1 hPa 0,0 l/m 5,2 km/h (1 Bft) W 18,9 C 26,4 C 16,7 km/h (3 Bft)
03.08.2013 10:00 26,5 C 61 % 1014,9 hPa 0,0 l/m 4,8 km/h (1 Bft) W 18,4 C 26,5 C 12,0 km/h (2 Bft)
03.08.2013 11:00 27,5 C 55 % 1014,7 hPa 0,0 l/m 4,3 km/h (1 Bft) W-SW 17,6 C 27,5 C 11,1 km/h (2 Bft)
03.08.2013 12:00 29,0 C 49 % 1014,5 hPa 0,0 l/m 5,5 km/h (2 Bft) SW 17,1 C 29,0 C 13,3 km/h (3 Bft)
03.08.2013 13:00 28,7 C 51 % 1015,2 hPa 0,0 l/m 7,7 km/h (2 Bft) W-NW 17,4 C 28,5 C 17,8 km/h (3 Bft)
03.08.2013 14:00 27,3 C 56 % 1016,1 hPa 0,0 l/m 6,5 km/h (2 Bft) W 17,8 C 27,2 C 16,1 km/h (3 Bft)
03.08.2013 15:00 28,3 C 54 % 1016,4 hPa 0,0 l/m 6,2 km/h (2 Bft) W-SW 18,0 C 28,2 C 14,8 km/h (3 Bft)
03.08.2013 16:00 28,5 C 52 % 1016,6 hPa 0,0 l/m 5,4 km/h (2 Bft) S-SW 17,6 C 28,4 C 12,8 km/h (3 Bft)
03.08.2013 17:00 28,1 C 54 % 1016,5 hPa 0,0 l/m 3,9 km/h (1 Bft) S 17,8 C 28,1 C 8,6 km/h (2 Bft)
03.08.2013 18:00 27,0 C 60 % 1016,7 hPa 0,0 l/m 3,5 km/h (1 Bft) W-SW 18,5 C 27,0 C 8,3 km/h (2 Bft)
03.08.2013 19:00 26,0 C 61 % 1017,2 hPa 0,0 l/m 0,7 km/h (0 Bft) S-SO 17,8 C 26,0 C 2,5 km/h (1 Bft)
03.08.2013 20:00 24,9 C 65 % 1017,9 hPa 0,0 l/m 5,8 km/h (2 Bft) N-NO 17,8 C 24,3 C 10,6 km/h (2 Bft)
03.08.2013 21:00 21,8 C 74 % 1019,0 hPa 0,0 l/m 8,0 km/h (2 Bft) N-NO 16,9 C 21,1 C 14,9 km/h (3 Bft)
03.08.2013 22:00 19,9 C 79 % 1019,7 hPa 0,0 l/m 3,7 km/h (1 Bft) N-NO 16,2 C 19,8 C 7,4 km/h (2 Bft)
03.08.2013 23:00 18,2 C 84 % 1019,9 hPa 0,0 l/m 1,4 km/h (1 Bft) N-NO 15,5 C 18,2 C 2,5 km/h (1 Bft)
04.08.2013 00:00 16,9 C 88 % 1020,2 hPa 0,0 l/m 0,1 km/h (0 Bft) N 14,9 C 16,9 C 0,5 km/h (0 Bft)
04.08.2013 01:00 16,2 C 90 % 1020,5 hPa 0,0 l/m 0,0 km/h (0 Bft) N 14,5 C 16,2 C 0,0 km/h (0 Bft)
04.08.2013 02:00 16,6 C 91 % 1020,6 hPa 0,0 l/m 0,0 km/h (0 Bft) N 15,0 C 16,6 C 0,0 km/h (0 Bft)
04.08.2013 03:00 16,6 C 91 % 1020,4 hPa 0,0 l/m 0,0 km/h (0 Bft) N 15,2 C 16,6 C 0,1 km/h (0 Bft)
04.08.2013 04:00 16,9 C 90 % 1020,6 hPa 0,0 l/m 0,0 km/h (0 Bft) N 15,3 C 16,9 C 0,0 km/h (0 Bft)
04.08.2013 05:00 16,7 C 90 % 1021,1 hPa 0,0 l/m 0,0 km/h (0 Bft) N 15,0 C 16,7 C 0,0 km/h (0 Bft)
04.08.2013 06:00 16,7 C 91 % 1021,1 hPa 0,0 l/m 0,0 km/h (0 Bft) N 15,2 C 16,7 C 0,0 km/h (0 Bft)
04.08.2013 07:00 17,4 C 89 % 1021,4 hPa 0,0 l/m 0,0 km/h (0 Bft) N 15,5 C 17,4 C 0,0 km/h (0 Bft)
04.08.2013 08:00 18,8 C 83 % 1021,4 hPa 0,0 l/m 1,8 km/h (1 Bft) N-NO 15,8 C 18,8 C 4,7 km/h (1 Bft)
04.08.2013 09:00 20,3 C 75 % 1021,4 hPa 0,0 l/m 3,1 km/h (1 Bft) O 15,7 C 20,3 C 6,4 km/h (2 Bft)
04.08.2013 10:00 22,0 C 61 % 1021,6 hPa 0,0 l/m 5,8 km/h (2 Bft) O 14,1 C 21,9 C 11,5 km/h (2 Bft)
04.08.2013 11:00 19,5 C 80 % 1021,9 hPa 0,0 l/m 3,6 km/h (1 Bft) SO 15,9 C 19,5 C 8,6 km/h (2 Bft)
04.08.2013 12:00 18,7 C 82 % 1021,7 hPa 0,0 l/m 4,4 km/h (1 Bft) O-NO 15,6 C 18,7 C 8,8 km/h (2 Bft)
04.08.2013 13:00 20,7 C 74 % 1021,6 hPa 0,0 l/m 4,6 km/h (1 Bft) O 15,9 C 20,7 C 9,0 km/h (2 Bft)
04.08.2013 14:00 23,1 C 61 % 1021,2 hPa 0,0 l/m 4,9 km/h (1 Bft) O-NO 15,3 C 23,1 C 11,1 km/h (2 Bft)
04.08.2013 15:00 24,1 C 58 % 1020,4 hPa 0,0 l/m 4,5 km/h (1 Bft) NO 15,3 C 24,1 C 10,8 km/h (2 Bft)
04.08.2013 16:00 24,7 C 57 % 1020,3 hPa 0,0 l/m 5,5 km/h (2 Bft) O 15,6 C 24,7 C 11,6 km/h (2 Bft)
04.08.2013 17:00 24,8 C 56 % 1020,1 hPa 0,0 l/m 4,5 km/h (1 Bft) O 15,3 C 24,8 C 10,2 km/h (2 Bft)
04.08.2013 18:00 25,0 C 54 % 1019,7 hPa 0,0 l/m 3,4 km/h (1 Bft) O-NO 14,9 C 25,0 C 8,0 km/h (2 Bft)
04.08.2013 19:00 24,4 C 57 % 1020,0 hPa 0,0 l/m 2,6 km/h (1 Bft) NO 15,2 C 24,4 C 5,9 km/h (2 Bft)
04.08.2013 20:00 22,2 C 66 % 1020,2 hPa 0,0 l/m 0,7 km/h (0 Bft) O 15,4 C 22,2 C 1,6 km/h (1 Bft)
04.08.2013 21:00 18,6 C 81 % 1020,6 hPa 0,0 l/m 0,0 km/h (0 Bft) N 15,2 C 18,6 C 0,0 km/h (0 Bft)
04.08.2013 22:00 16,2 C 88 % 1020,7 hPa 0,0 l/m 0,0 km/h (0 Bft) N 14,3 C 16,2 C 0,0 km/h (0 Bft)
04.08.2013 23:00 14,6 C 92 % 1020,9 hPa 0,0 l/m 0,0 km/h (0 Bft) N 13,2 C 14,6 C 0,0 km/h (0 Bft)
Min-Datum _ 02.08.13 02.08.13 03.08.13 - 29.07.13 - 30.07.13 02.08.13 29.07.13
_ Min-Zeit 05:15 15:05 04:05 - 00:00 - 18:55 05:15 00:00
Minimum _ 14,1 C 28 % 1009,8 hPa - 0,0 km/h (0 Bft) - 11,9 C 14,1 C 0,0 km/h (0 Bft)
Max-Datum _ 02.08.13 29.07.13 04.08.13 29.07.13 31.07.13 - 29.07.13 02.08.13 02.08.13
_ Max-Zeit 17:30 06:50 11:10 20:40 15:35 - 12:25 17:30 16:20
Maximum _ 36,8 C 97 % 1022,1 hPa 10,0 l/m 12,9 km/h
N-NW (3 Bft)
- 19,9 C 36,8 C 35,4 km/h
SW (5 Bft)
Durchschnitt _ 21,7 C 74 % 1015,1 hPa #16,4 l/m 2,6 km/h (1 Bft) SW 16,1 C 21,7 C 6,5 km/h (2 Bft)